sensor_id;sensor_type;location;lat;lon;timestamp;pressure;altitude;pressure_sealevel;temperature;humidity
50011;BME280;35899;50.352;19.390;2022-12-26T00:01:46;97823.63;;;2.74;100.00
50011;BME280;35899;50.352;19.390;2022-12-26T00:04:15;97815.80;;;2.67;100.00
50011;BME280;35899;50.352;19.390;2022-12-26T00:06:42;97816.42;;;2.62;100.00
50011;BME280;35899;50.352;19.390;2022-12-26T00:09:08;97820.41;;;2.59;100.00
50011;BME280;35899;50.352;19.390;2022-12-26T00:11:36;97809.44;;;2.56;100.00
50011;BME280;35899;50.352;19.390;2022-12-26T00:14:09;97797.65;;;2.51;100.00
50011;BME280;35899;50.352;19.390;2022-12-26T00:16:38;97793.52;;;2.47;100.00
50011;BME280;35899;50.352;19.390;2022-12-26T00:19:06;97798.83;;;2.43;100.00
50011;BME280;35899;50.352;19.390;2022-12-26T00:21:33;97795.55;;;2.39;100.00
50011;BME280;35899;50.352;19.390;2022-12-26T00:24:00;97777.81;;;2.34;100.00
50011;BME280;35899;50.352;19.390;2022-12-26T00:26:29;97779.20;;;2.31;100.00
50011;BME280;35899;50.352;19.390;2022-12-26T00:28:56;97773.31;;;2.29;100.00
50011;BME280;35899;50.352;19.390;2022-12-26T00:31:26;97779.40;;;2.27;100.00
50011;BME280;35899;50.352;19.390;2022-12-26T00:33:53;97777.34;;;2.25;100.00
50011;BME280;35899;50.352;19.390;2022-12-26T00:36:22;97780.38;;;2.23;100.00
50011;BME280;35899;50.352;19.390;2022-12-26T00:38:50;97778.02;;;2.18;100.00
50011;BME280;35899;50.352;19.390;2022-12-26T00:41:18;97777.24;;;2.16;100.00
50011;BME280;35899;50.352;19.390;2022-12-26T00:43:45;97789.27;;;2.14;100.00
50011;BME280;35899;50.352;19.390;2022-12-26T00:46:12;97786.62;;;1.93;100.00
50011;BME280;35899;50.352;19.390;2022-12-26T00:48:41;97805.59;;;2.00;100.00
50011;BME280;35899;50.352;19.390;2022-12-26T00:51:07;97805.59;;;2.00;100.00
50011;BME280;35899;50.352;19.390;2022-12-26T00:53:34;97807.83;;;1.97;100.00
50011;BME280;35899;50.352;19.390;2022-12-26T00:56:01;97804.05;;;1.95;100.00
50011;BME280;35899;50.352;19.390;2022-12-26T00:58:28;97795.34;;;2.00;100.00
50011;BME280;35899;50.352;19.390;2022-12-26T01:00:55;97780.55;;;1.96;100.00
50011;BME280;35899;50.352;19.390;2022-12-26T01:03:43;97788.34;;;2.05;100.00
50011;BME280;35899;50.352;19.390;2022-12-26T01:06:11;97781.17;;;2.03;100.00
50011;BME280;35899;50.352;19.390;2022-12-26T01:08:37;97788.81;;;2.14;100.00
50011;BME280;35899;50.352;19.390;2022-12-26T01:11:07;97783.08;;;2.20;100.00
50011;BME280;35899;50.352;19.390;2022-12-26T01:13:35;97789.70;;;2.25;100.00
50011;BME280;35899;50.352;19.390;2022-12-26T01:16:02;97798.47;;;2.30;100.00
50011;BME280;35899;50.352;19.390;2022-12-26T01:18:30;97794.02;;;2.35;100.00
50011;BME280;35899;50.352;19.390;2022-12-26T01:20:58;97788.69;;;2.40;100.00
50011;BME280;35899;50.352;19.390;2022-12-26T01:23:25;97786.02;;;2.43;100.00
50011;BME280;35899;50.352;19.390;2022-12-26T01:25:52;97787.19;;;2.46;100.00
50011;BME280;35899;50.352;19.390;2022-12-26T01:28:19;97783.21;;;2.49;100.00
50011;BME280;35899;50.352;19.390;2022-12-26T01:30:45;97781.42;;;2.51;100.00
50011;BME280;35899;50.352;19.390;2022-12-26T01:33:13;97778.74;;;2.54;100.00
50011;BME280;35899;50.352;19.390;2022-12-26T01:35:43;97773.94;;;2.57;100.00
50011;BME280;35899;50.352;19.390;2022-12-26T01:38:14;97777.21;;;2.60;100.00
50011;BME280;35899;50.352;19.390;2022-12-26T01:40:43;97768.13;;;2.63;100.00
50011;BME280;35899;50.352;19.390;2022-12-26T01:43:11;97779.14;;;2.65;100.00
50011;BME280;35899;50.352;19.390;2022-12-26T01:45:42;97784.53;;;2.69;100.00
50011;BME280;35899;50.352;19.390;2022-12-26T01:48:25;97771.97;;;2.73;100.00
50011;BME280;35899;50.352;19.390;2022-12-26T01:51:02;97763.83;;;2.74;100.00
50011;BME280;35899;50.352;19.390;2022-12-26T01:53:33;97753.52;;;2.76;100.00
50011;BME280;35899;50.352;19.390;2022-12-26T01:56:08;97744.94;;;2.77;100.00
50011;BME280;35899;50.352;19.390;2022-12-26T01:58:46;97747.97;;;2.76;100.00
50011;BME280;35899;50.352;19.390;2022-12-26T02:01:14;97746.22;;;2.77;100.00
50011;BME280;35899;50.352;19.390;2022-12-26T02:03:43;97750.44;;;2.78;100.00
50011;BME280;35899;50.352;19.390;2022-12-26T02:06:12;97755.56;;;2.78;100.00
50011;BME280;35899;50.352;19.390;2022-12-26T02:08:40;97761.45;;;2.80;100.00
50011;BME280;35899;50.352;19.390;2022-12-26T02:11:19;97752.06;;;2.80;100.00
50011;BME280;35899;50.352;19.390;2022-12-26T02:14:00;97745.77;;;2.77;100.00
50011;BME280;35899;50.352;19.390;2022-12-26T02:16:32;97723.42;;;2.70;100.00
50011;BME280;35899;50.352;19.390;2022-12-26T02:18:59;97724.76;;;2.69;100.00
50011;BME280;35899;50.352;19.390;2022-12-26T02:27:34;97710.52;;;2.72;100.00
50011;BME280;35899;50.352;19.390;2022-12-26T02:30:26;97700.20;;;2.73;100.00
50011;BME280;35899;50.352;19.390;2022-12-26T02:36:11;97712.52;;;2.65;100.00
50011;BME280;35899;50.352;19.390;2022-12-26T02:38:46;97705.98;;;2.58;100.00
50011;BME280;35899;50.352;19.390;2022-12-26T02:44:21;97703.33;;;2.49;100.00
50011;BME280;35899;50.352;19.390;2022-12-26T02:53:11;97710.05;;;2.42;100.00
50011;BME280;35899;50.352;19.390;2022-12-26T02:55:42;97712.76;;;2.39;100.00
50011;BME280;35899;50.352;19.390;2022-12-26T02:58:18;97706.16;;;2.33;100.00
50011;BME280;35899;50.352;19.390;2022-12-26T03:00:47;97701.20;;;2.28;100.00
50011;BME280;35899;50.352;19.390;2022-12-26T03:03:18;97698.38;;;2.24;100.00
50011;BME280;35899;50.352;19.390;2022-12-26T03:06:16;97690.39;;;2.22;100.00
50011;BME280;35899;50.352;19.390;2022-12-26T03:08:47;97690.95;;;2.18;100.00
50011;BME280;35899;50.352;19.390;2022-12-26T03:11:23;97684.55;;;2.18;100.00
50011;BME280;35899;50.352;19.390;2022-12-26T03:13:53;97681.22;;;2.16;100.00
50011;BME280;35899;50.352;19.390;2022-12-26T03:16:21;97684.29;;;2.14;100.00
50011;BME280;35899;50.352;19.390;2022-12-26T03:18:52;97677.95;;;2.12;100.00
50011;BME280;35899;50.352;19.390;2022-12-26T03:21:24;97675.33;;;2.14;100.00
50011;BME280;35899;50.352;19.390;2022-12-26T03:23:51;97676.61;;;2.14;100.00
50011;BME280;35899;50.352;19.390;2022-12-26T03:26:28;97669.30;;;2.15;100.00
50011;BME280;35899;50.352;19.390;2022-12-26T03:28:59;97665.91;;;2.14;100.00
50011;BME280;35899;50.352;19.390;2022-12-26T03:31:25;97646.77;;;2.13;100.00
50011;BME280;35899;50.352;19.390;2022-12-26T03:33:51;97633.54;;;2.13;100.00
50011;BME280;35899;50.352;19.390;2022-12-26T03:36:34;97626.73;;;2.12;100.00
50011;BME280;35899;50.352;19.390;2022-12-26T03:42:22;97640.36;;;2.13;100.00
50011;BME280;35899;50.352;19.390;2022-12-26T03:44:57;97643.33;;;2.14;100.00
50011;BME280;35899;50.352;19.390;2022-12-26T03:47:38;97645.89;;;2.14;100.00
50011;BME280;35899;50.352;19.390;2022-12-26T03:50:37;97639.54;;;2.12;100.00
50011;BME280;35899;50.352;19.390;2022-12-26T03:53:19;97631.75;;;2.15;100.00
50011;BME280;35899;50.352;19.390;2022-12-26T03:55:58;97631.75;;;2.15;100.00
50011;BME280;35899;50.352;19.390;2022-12-26T03:58:35;97633.85;;;2.16;100.00
50011;BME280;35899;50.352;19.390;2022-12-26T04:01:24;97635.12;;;2.16;100.00
50011;BME280;35899;50.352;19.390;2022-12-26T04:03:53;97633.85;;;2.16;100.00
50011;BME280;35899;50.352;19.390;2022-12-26T04:06:24;97627.91;;;2.15;100.00
50011;BME280;35899;50.352;19.390;2022-12-26T04:08:57;97628.73;;;2.16;100.00
50011;BME280;35899;50.352;19.390;2022-12-26T04:11:25;97633.34;;;2.18;100.00
50011;BME280;35899;50.352;19.390;2022-12-26T04:13:57;97634.05;;;2.22;100.00
50011;BME280;35899;50.352;19.390;2022-12-26T04:19:26;97622.73;;;2.17;100.00
50011;BME280;35899;50.352;19.390;2022-12-26T04:22:13;97621.56;;;2.14;100.00
50011;BME280;35899;50.352;19.390;2022-12-26T04:25:15;97616.95;;;2.12;100.00
50011;BME280;35899;50.352;19.390;2022-12-26T04:27:40;97611.63;;;2.06;100.00
50011;BME280;35899;50.352;19.390;2022-12-26T04:30:08;97603.81;;;1.99;100.00
50011;BME280;35899;50.352;19.390;2022-12-26T04:32:46;97601.97;;;1.92;100.00
50011;BME280;35899;50.352;19.390;2022-12-26T04:35:20;97628.19;;;1.87;100.00
50011;BME280;35899;50.352;19.390;2022-12-26T04:37:54;97602.38;;;1.71;100.00
50011;BME280;35899;50.352;19.390;2022-12-26T04:40:25;97621.57;;;1.71;100.00
50011;BME280;35899;50.352;19.390;2022-12-26T04:42:52;97616.61;;;1.67;100.00
50011;BME280;35899;50.352;19.390;2022-12-26T04:45:20;97619.79;;;1.62;100.00
50011;BME280;35899;50.352;19.390;2022-12-26T04:47:51;97631.09;;;1.56;100.00
50011;BME280;35899;50.352;19.390;2022-12-26T04:50:17;97630.83;;;1.52;100.00
50011;BME280;35899;50.352;19.390;2022-12-26T04:52:44;97632.35;;;1.46;100.00
50011;BME280;35899;50.352;19.390;2022-12-26T04:55:10;97626.20;;;1.40;100.00
50011;BME280;35899;50.352;19.390;2022-12-26T04:57:36;97631.05;;;1.35;100.00
50011;BME280;35899;50.352;19.390;2022-12-26T05:00:03;97627.27;;;1.34;100.00
50011;BME280;35899;50.352;19.390;2022-12-26T05:02:32;97629.36;;;1.34;100.00
50011;BME280;35899;50.352;19.390;2022-12-26T05:04:58;97625.94;;;1.35;100.00
50011;BME280;35899;50.352;19.390;2022-12-26T05:07:33;97624.70;;;1.34;100.00
50011;BME280;35899;50.352;19.390;2022-12-26T05:10:00;97605.88;;;1.25;100.00
50011;BME280;35899;50.352;19.390;2022-12-26T05:12:27;97610.02;;;1.27;100.00
50011;BME280;35899;50.352;19.390;2022-12-26T05:14:53;97623.16;;;1.30;100.00
50011;BME280;35899;50.352;19.390;2022-12-26T05:17:20;97623.77;;;1.25;100.00
50011;BME280;35899;50.352;19.390;2022-12-26T05:19:47;97615.20;;;1.14;100.00
50011;BME280;35899;50.352;19.390;2022-12-26T05:22:13;97627.40;;;1.07;100.00
50011;BME280;35899;50.352;19.390;2022-12-26T05:24:41;97620.84;;;1.00;100.00
50011;BME280;35899;50.352;19.390;2022-12-26T05:27:11;97606.16;;;0.82;100.00
50011;BME280;35899;50.352;19.390;2022-12-26T05:29:38;97606.16;;;0.82;100.00
50011;BME280;35899;50.352;19.390;2022-12-26T05:32:06;97604.89;;;0.70;100.00
50011;BME280;35899;50.352;19.390;2022-12-26T05:34:32;97609.00;;;0.74;100.00
50011;BME280;35899;50.352;19.390;2022-12-26T05:36:58;97609.13;;;0.71;100.00
50011;BME280;35899;50.352;19.390;2022-12-26T05:39:25;97622.45;;;0.67;100.00
50011;BME280;35899;50.352;19.390;2022-12-26T05:41:52;97628.93;;;0.64;100.00
50011;BME280;35899;50.352;19.390;2022-12-26T05:44:18;97634.08;;;0.63;100.00
50011;BME280;35899;50.352;19.390;2022-12-26T05:46:45;97639.42;;;0.68;100.00
50011;BME280;35899;50.352;19.390;2022-12-26T05:49:11;97639.42;;;0.68;100.00
50011;BME280;35899;50.352;19.390;2022-12-26T05:51:38;97654.20;;;0.72;100.00
50011;BME280;35899;50.352;19.390;2022-12-26T05:54:04;97648.55;;;0.75;100.00
50011;BME280;35899;50.352;19.390;2022-12-26T05:56:30;97654.34;;;0.81;100.00
50011;BME280;35899;50.352;19.390;2022-12-26T05:58:58;97650.38;;;0.84;100.00
50011;BME280;35899;50.352;19.390;2022-12-26T06:01:27;97621.63;;;0.90;100.00
50011;BME280;35899;50.352;19.390;2022-12-26T06:03:55;97621.63;;;0.90;100.00
50011;BME280;35899;50.352;19.390;2022-12-26T06:06:24;97614.63;;;0.95;100.00
50011;BME280;35899;50.352;19.390;2022-12-26T06:08:52;97616.13;;;1.01;100.00
50011;BME280;35899;50.352;19.390;2022-12-26T06:11:21;97616.13;;;1.01;100.00
50011;BME280;35899;50.352;19.390;2022-12-26T06:13:48;97623.34;;;1.02;100.00
50011;BME280;35899;50.352;19.390;2022-12-26T06:16:16;97625.39;;;1.04;100.00
50011;BME280;35899;50.352;19.390;2022-12-26T06:18:43;97614.34;;;1.03;100.00
50011;BME280;35899;50.352;19.390;2022-12-26T06:21:12;97607.87;;;1.05;100.00
50011;BME280;35899;50.352;19.390;2022-12-26T06:23:40;97611.02;;;1.01;100.00
50011;BME280;35899;50.352;19.390;2022-12-26T06:26:07;97609.02;;;0.97;100.00
50011;BME280;35899;50.352;19.390;2022-12-26T06:28:34;97609.02;;;0.97;100.00
50011;BME280;35899;50.352;19.390;2022-12-26T06:31:07;97602.22;;;0.96;100.00
50011;BME280;35899;50.352;19.390;2022-12-26T06:33:35;97596.27;;;1.08;100.00
50011;BME280;35899;50.352;19.390;2022-12-26T06:36:07;97622.67;;;1.20;100.00
50011;BME280;35899;50.352;19.390;2022-12-26T06:38:35;97622.67;;;1.20;100.00
50011;BME280;35899;50.352;19.390;2022-12-26T06:41:06;97632.72;;;1.25;100.00
50011;BME280;35899;50.352;19.390;2022-12-26T06:43:35;97632.72;;;1.25;100.00
50011;BME280;35899;50.352;19.390;2022-12-26T06:46:03;97621.42;;;1.30;100.00
50011;BME280;35899;50.352;19.390;2022-12-26T06:48:31;97648.44;;;1.71;100.00
50011;BME280;35899;50.352;19.390;2022-12-26T06:51:03;97625.41;;;1.71;100.00
50011;BME280;35899;50.352;19.390;2022-12-26T06:53:32;97625.41;;;1.71;100.00
50011;BME280;35899;50.352;19.390;2022-12-26T06:56:06;97634.36;;;2.14;100.00
50011;BME280;35899;50.352;19.390;2022-12-26T06:58:41;97634.36;;;2.14;100.00
50011;BME280;35899;50.352;19.390;2022-12-26T07:01:10;97644.82;;;2.40;100.00
50011;BME280;35899;50.352;19.390;2022-12-26T07:03:38;97646.92;;;2.61;100.00
50011;BME280;35899;50.352;19.390;2022-12-26T07:06:09;97648.04;;;2.85;100.00
50011;BME280;35899;50.352;19.390;2022-12-26T07:08:39;97657.62;;;3.00;100.00
50011;BME280;35899;50.352;19.390;2022-12-26T07:11:14;97654.01;;;3.15;100.00
50011;BME280;35899;50.352;19.390;2022-12-26T07:13:42;97645.58;;;3.21;100.00
50011;BME280;35899;50.352;19.390;2022-12-26T07:16:11;97645.92;;;3.32;100.00
50011;BME280;35899;50.352;19.390;2022-12-26T07:18:37;97636.94;;;3.51;100.00
50011;BME280;35899;50.352;19.390;2022-12-26T07:21:09;97635.39;;;3.66;100.00
50011;BME280;35899;50.352;19.390;2022-12-26T07:23:36;97615.94;;;3.80;100.00
50011;BME280;35899;50.352;19.390;2022-12-26T07:26:03;97610.66;;;3.91;100.00
50011;BME280;35899;50.352;19.390;2022-12-26T07:28:30;97615.89;;;3.99;100.00
50011;BME280;35899;50.352;19.390;2022-12-26T07:30:57;97618.55;;;4.06;100.00
50011;BME280;35899;50.352;19.390;2022-12-26T07:33:23;97633.05;;;4.16;100.00
50011;BME280;35899;50.352;19.390;2022-12-26T07:35:50;97639.92;;;4.24;100.00
50011;BME280;35899;50.352;19.390;2022-12-26T07:38:17;97639.93;;;4.33;100.00
50011;BME280;35899;50.352;19.390;2022-12-26T07:40:43;97645.52;;;4.41;100.00
50011;BME280;35899;50.352;19.390;2022-12-26T07:43:10;97634.62;;;4.44;100.00
50011;BME280;35899;50.352;19.390;2022-12-26T07:45:36;97624.86;;;4.51;100.00
50011;BME280;35899;50.352;19.390;2022-12-26T07:48:03;97622.29;;;4.60;100.00
50011;BME280;35899;50.352;19.390;2022-12-26T07:50:29;97628.25;;;4.69;100.00
50011;BME280;35899;50.352;19.390;2022-12-26T07:52:57;97633.42;;;4.85;100.00
50011;BME280;35899;50.352;19.390;2022-12-26T07:55:24;97624.55;;;4.99;100.00
50011;BME280;35899;50.352;19.390;2022-12-26T07:57:51;97625.64;;;5.11;100.00
50011;BME280;35899;50.352;19.390;2022-12-26T08:00:18;97640.20;;;5.19;100.00
50011;BME280;35899;50.352;19.390;2022-12-26T08:02:49;97642.55;;;5.24;100.00
50011;BME280;35899;50.352;19.390;2022-12-26T08:05:16;97636.69;;;5.29;100.00
50011;BME280;35899;50.352;19.390;2022-12-26T08:07:48;97628.42;;;5.31;100.00
50011;BME280;35899;50.352;19.390;2022-12-26T08:10:17;97635.53;;;5.35;100.00
50011;BME280;35899;50.352;19.390;2022-12-26T08:12:44;97621.22;;;5.38;100.00
50011;BME280;35899;50.352;19.390;2022-12-26T08:15:11;97616.73;;;5.41;100.00
50011;BME280;35899;50.352;19.390;2022-12-26T08:17:38;97619.91;;;5.46;100.00
50011;BME280;35899;50.352;19.390;2022-12-26T08:20:05;97635.16;;;5.49;100.00
50011;BME280;35899;50.352;19.390;2022-12-26T08:22:32;97636.57;;;5.55;100.00
50011;BME280;35899;50.352;19.390;2022-12-26T08:24:59;97649.30;;;5.58;100.00
50011;BME280;35899;50.352;19.390;2022-12-26T08:27:25;97651.25;;;5.62;100.00
50011;BME280;35899;50.352;19.390;2022-12-26T08:29:52;97641.15;;;5.66;100.00
50011;BME280;35899;50.352;19.390;2022-12-26T08:32:18;97649.08;;;5.70;100.00
50011;BME280;35899;50.352;19.390;2022-12-26T08:34:45;97651.69;;;5.77;100.00
50011;BME280;35899;50.352;19.390;2022-12-26T08:37:11;97647.84;;;5.84;100.00
50011;BME280;35899;50.352;19.390;2022-12-26T08:39:37;97661.77;;;5.89;100.00
50011;BME280;35899;50.352;19.390;2022-12-26T08:42:04;97665.91;;;5.92;100.00
50011;BME280;35899;50.352;19.390;2022-12-26T08:44:30;97671.80;;;5.94;100.00
50011;BME280;35899;50.352;19.390;2022-12-26T08:46:57;97676.83;;;5.97;100.00
50011;BME280;35899;50.352;19.390;2022-12-26T08:49:23;97668.55;;;5.99;100.00
50011;BME280;35899;50.352;19.390;2022-12-26T08:51:49;97657.23;;;6.01;100.00
50011;BME280;35899;50.352;19.390;2022-12-26T08:54:16;97655.71;;;6.06;100.00
50011;BME280;35899;50.352;19.390;2022-12-26T08:56:42;97644.15;;;6.13;100.00
50011;BME280;35899;50.352;19.390;2022-12-26T08:59:09;97637.92;;;6.24;100.00
50011;BME280;35899;50.352;19.390;2022-12-26T09:01:35;97630.37;;;6.36;100.00
50011;BME280;35899;50.352;19.390;2022-12-26T09:04:02;97624.88;;;6.49;100.00
50011;BME280;35899;50.352;19.390;2022-12-26T09:06:34;97625.47;;;6.61;100.00
50011;BME280;35899;50.352;19.390;2022-12-26T09:09:03;97628.24;;;6.73;100.00
50011;BME280;35899;50.352;19.390;2022-12-26T09:11:30;97636.09;;;6.85;100.00
50011;BME280;35899;50.352;19.390;2022-12-26T09:13:59;97644.45;;;6.96;100.00
50011;BME280;35899;50.352;19.390;2022-12-26T09:16:33;97652.94;;;7.05;100.00
50011;BME280;35899;50.352;19.390;2022-12-26T09:19:01;97660.69;;;7.13;100.00
50011;BME280;35899;50.352;19.390;2022-12-26T09:21:29;97658.02;;;7.14;100.00
50011;BME280;35899;50.352;19.390;2022-12-26T09:23:58;97644.47;;;7.18;100.00
50011;BME280;35899;50.352;19.390;2022-12-26T09:26:26;97642.06;;;7.22;100.00
50011;BME280;35899;50.352;19.390;2022-12-26T09:28:53;97640.77;;;7.29;100.00
50011;BME280;35899;50.352;19.390;2022-12-26T09:31:22;97640.73;;;7.36;100.00
50011;BME280;35899;50.352;19.390;2022-12-26T09:33:50;97641.30;;;7.41;100.00
50011;BME280;35899;50.352;19.390;2022-12-26T09:36:20;97637.42;;;7.41;100.00
50011;BME280;35899;50.352;19.390;2022-12-26T09:38:47;97632.25;;;7.41;100.00
50011;BME280;35899;50.352;19.390;2022-12-26T09:49:33;97645.55;;;7.28;100.00
50011;BME280;35899;50.352;19.390;2022-12-26T09:52:14;97650.45;;;7.26;100.00
50011;BME280;35899;50.352;19.390;2022-12-26T09:54:52;97657.34;;;7.25;100.00
50011;BME280;35899;50.352;19.390;2022-12-26T09:57:38;97649.98;;;7.26;100.00
50011;BME280;35899;50.352;19.390;2022-12-26T10:00:05;97653.47;;;7.32;100.00
50011;BME280;35899;50.352;19.390;2022-12-26T10:02:34;97657.17;;;7.35;100.00
50011;BME280;35899;50.352;19.390;2022-12-26T10:05:01;97663.98;;;7.36;100.00
50011;BME280;35899;50.352;19.390;2022-12-26T10:13:14;97654.20;;;7.49;100.00
50011;BME280;35899;50.352;19.390;2022-12-26T10:15:50;97648.48;;;7.51;100.00
50011;BME280;35899;50.352;19.390;2022-12-26T10:24:29;97637.28;;;7.57;100.00
50011;BME280;35899;50.352;19.390;2022-12-26T10:27:04;97632.23;;;7.56;100.00
50011;BME280;35899;50.352;19.390;2022-12-26T10:29:40;97626.70;;;7.55;100.00
50011;BME280;35899;50.352;19.390;2022-12-26T10:32:13;97612.11;;;7.54;100.00
50011;BME280;35899;50.352;19.390;2022-12-26T10:34:44;97612.11;;;7.54;100.00
50011;BME280;35899;50.352;19.390;2022-12-26T10:37:33;97626.60;;;7.56;100.00
50011;BME280;35899;50.352;19.390;2022-12-26T10:40:23;97640.25;;;7.58;100.00
50011;BME280;35899;50.352;19.390;2022-12-26T10:42:56;97633.31;;;7.59;100.00
50011;BME280;35899;50.352;19.390;2022-12-26T10:45:46;97615.97;;;7.61;100.00
50011;BME280;35899;50.352;19.390;2022-12-26T10:48:16;97613.94;;;7.66;100.00
50011;BME280;35899;50.352;19.390;2022-12-26T10:50:47;97601.00;;;7.73;100.00
50011;BME280;35899;50.352;19.390;2022-12-26T10:53:14;97606.80;;;7.77;100.00
50011;BME280;35899;50.352;19.390;2022-12-26T10:55:42;97600.04;;;7.81;100.00
50011;BME280;35899;50.352;19.390;2022-12-26T10:58:29;97600.11;;;7.87;100.00
50011;BME280;35899;50.352;19.390;2022-12-26T11:03:57;97585.24;;;8.23;100.00
50011;BME280;35899;50.352;19.390;2022-12-26T11:06:35;97588.83;;;8.61;100.00
50011;BME280;35899;50.352;19.390;2022-12-26T11:08:59;97588.83;;;8.74;100.00
50011;BME280;35899;50.352;19.390;2022-12-26T11:11:29;97587.78;;;8.76;100.00
50011;BME280;35899;50.352;19.390;2022-12-26T11:13:59;97594.92;;;8.73;100.00
50011;BME280;35899;50.352;19.390;2022-12-26T11:16:32;97590.67;;;8.72;100.00
50011;BME280;35899;50.352;19.390;2022-12-26T11:19:01;97598.43;;;8.72;100.00
50011;BME280;35899;50.352;19.390;2022-12-26T11:21:29;97603.83;;;8.69;100.00
50011;BME280;35899;50.352;19.390;2022-12-26T11:26:44;97596.73;;;8.65;100.00
50011;BME280;35899;50.352;19.390;2022-12-26T11:29:19;97592.38;;;8.66;100.00
50011;BME280;35899;50.352;19.390;2022-12-26T11:31:59;97583.94;;;8.95;100.00
50011;BME280;35899;50.352;19.390;2022-12-26T11:34:36;97583.75;;;9.04;100.00
50011;BME280;35899;50.352;19.390;2022-12-26T11:37:05;97574.04;;;9.50;100.00
50011;BME280;35899;50.352;19.390;2022-12-26T11:39:36;97573.99;;;9.87;100.00
50011;BME280;35899;50.352;19.390;2022-12-26T11:42:10;97578.52;;;10.37;100.00
50011;BME280;35899;50.352;19.390;2022-12-26T11:44:42;97564.61;;;11.28;100.00
50011;BME280;35899;50.352;19.390;2022-12-26T11:47:12;97571.32;;;12.12;100.00
50011;BME280;35899;50.352;19.390;2022-12-26T11:52:42;97583.39;;;12.13;100.00
50011;BME280;35899;50.352;19.390;2022-12-26T11:55:36;97586.57;;;11.90;100.00
50011;BME280;35899;50.352;19.390;2022-12-26T12:03:39;97556.48;;;11.27;100.00
50011;BME280;35899;50.352;19.390;2022-12-26T12:06:21;97559.23;;;10.86;100.00
50011;BME280;35899;50.352;19.390;2022-12-26T12:11:45;97570.62;;;10.33;100.00
50011;BME280;35899;50.352;19.390;2022-12-26T12:20:32;97559.23;;;9.82;100.00
50011;BME280;35899;50.352;19.390;2022-12-26T12:25:59;97549.01;;;9.56;100.00
50011;BME280;35899;50.352;19.390;2022-12-26T12:29:12;97556.38;;;9.49;100.00
50011;BME280;35899;50.352;19.390;2022-12-26T12:34:59;97546.64;;;9.34;100.00
50011;BME280;35899;50.352;19.390;2022-12-26T12:38:04;97552.05;;;9.31;100.00
50011;BME280;35899;50.352;19.390;2022-12-26T12:40:47;97553.66;;;9.45;100.00
50011;BME280;35899;50.352;19.390;2022-12-26T13:09:02;97545.05;;;8.71;100.00
50011;BME280;35899;50.352;19.390;2022-12-26T13:11:37;97545.19;;;8.62;100.00
50011;BME280;35899;50.352;19.390;2022-12-26T13:14:26;97538.43;;;8.54;100.00
50011;BME280;35899;50.352;19.390;2022-12-26T13:17:03;97545.32;;;8.48;100.00
50011;BME280;35899;50.352;19.390;2022-12-26T13:19:39;97552.92;;;8.44;100.00
50011;BME280;35899;50.352;19.390;2022-12-26T13:22:13;97550.26;;;8.38;100.00
50011;BME280;35899;50.352;19.390;2022-12-26T13:24:44;97549.73;;;8.33;100.00
50011;BME280;35899;50.352;19.390;2022-12-26T13:27:29;97553.08;;;8.28;100.00
50011;BME280;35899;50.352;19.390;2022-12-26T13:29:58;97552.92;;;8.23;100.00
50011;BME280;35899;50.352;19.390;2022-12-26T13:32:29;97551.83;;;8.20;100.00
50011;BME280;35899;50.352;19.390;2022-12-26T13:34:59;97547.03;;;8.21;100.00
50011;BME280;35899;50.352;19.390;2022-12-26T13:40:24;97552.73;;;8.27;100.00
50011;BME280;35899;50.352;19.390;2022-12-26T13:42:56;97547.19;;;8.26;100.00
50011;BME280;35899;50.352;19.390;2022-12-26T13:45:48;97549.14;;;8.22;100.00
50011;BME280;35899;50.352;19.390;2022-12-26T13:51:02;97543.56;;;8.15;100.00
50011;BME280;35899;50.352;19.390;2022-12-26T13:53:41;97550.70;;;8.12;100.00
50011;BME280;35899;50.352;19.390;2022-12-26T13:59:24;97554.86;;;8.07;100.00
50011;BME280;35899;50.352;19.390;2022-12-26T14:01:50;97553.78;;;8.04;100.00
50011;BME280;35899;50.352;19.390;2022-12-26T14:07:25;97552.17;;;7.96;100.00
50011;BME280;35899;50.352;19.390;2022-12-26T14:10:16;97548.74;;;7.95;100.00
50011;BME280;35899;50.352;19.390;2022-12-26T14:27:23;97549.18;;;7.82;100.00
50011;BME280;35899;50.352;19.390;2022-12-26T14:33:06;97550.41;;;7.76;100.00
50011;BME280;35899;50.352;19.390;2022-12-26T14:44:41;97580.28;;;7.60;100.00
50011;BME280;35899;50.352;19.390;2022-12-26T14:47:09;97572.36;;;7.56;100.00
50011;BME280;35899;50.352;19.390;2022-12-26T14:49:38;97573.48;;;7.52;100.00
50011;BME280;35899;50.352;19.390;2022-12-26T14:52:31;97571.74;;;7.46;100.00
50011;BME280;35899;50.352;19.390;2022-12-26T14:54:56;97580.14;;;7.42;100.00
50011;BME280;35899;50.352;19.390;2022-12-26T14:57:44;97577.48;;;7.36;100.00
50011;BME280;35899;50.352;19.390;2022-12-26T15:05:39;97579.81;;;7.27;100.00
50011;BME280;35899;50.352;19.390;2022-12-26T15:08:21;97574.09;;;7.21;100.00
50011;BME280;35899;50.352;19.390;2022-12-26T15:21:12;97556.89;;;7.08;100.00
50011;BME280;35899;50.352;19.390;2022-12-26T15:33:25;97546.23;;;6.92;100.00
50011;BME280;35899;50.352;19.390;2022-12-26T15:36:18;97547.26;;;6.90;100.00
50011;BME280;35899;50.352;19.390;2022-12-26T15:51:05;97529.46;;;6.92;100.00
50011;BME280;35899;50.352;19.390;2022-12-26T15:57:18;97547.26;;;6.90;100.00
50011;BME280;35899;50.352;19.390;2022-12-26T16:00:16;97547.44;;;6.87;100.00
50011;BME280;35899;50.352;19.390;2022-12-26T16:05:27;97539.05;;;6.83;100.00
50011;BME280;35899;50.352;19.390;2022-12-26T16:11:29;97535.39;;;6.80;100.00
50011;BME280;35899;50.352;19.390;2022-12-26T16:14:02;97530.58;;;6.81;100.00
50011;BME280;35899;50.352;19.390;2022-12-26T16:16:36;97535.18;;;6.83;100.00
50011;BME280;35899;50.352;19.390;2022-12-26T16:19:18;97537.77;;;6.83;100.00